Time;durP1;ratioP1;P1;durP2;ratioP2;P2;SDS_P1;SDS_P2;PMS_P1;PMS_P2;Temp;Humidity;BMP_temperature;BMP_pressure;BME280_temperature;BME280_humidity;BME280_pressure;Samples;Min_cycle;Max_cycle;Signal;HPM_P1;HPM_P2
2022/08/20 00:01:23;;;;;;;1999.90;999.90;;;19.70;99.90;;;;;;5014182;28;20500;-68
2022/08/20 00:03:49;;;;;;;1999.90;999.90;;;19.70;99.90;;;;;;5013859;28;20520;-68
2022/08/20 00:06:20;;;;;;;1999.90;999.90;;;19.70;99.90;;;;;;5013638;28;20197;-67
2022/08/20 00:08:46;;;;;;;1999.90;999.90;;;19.60;99.90;;;;;;5013923;28;20216;-68
2022/08/20 00:11:16;;;;;;;1999.90;999.90;;;19.60;99.90;;;;;;5013920;28;20411;-67
2022/08/20 00:13:48;;;;;;;1999.90;999.90;;;19.60;99.90;;;;;;5013942;28;20240;-68
2022/08/20 00:16:15;;;;;;;1999.90;999.90;;;19.60;99.90;;;;;;5013494;28;20382;-68
2022/08/20 00:18:42;;;;;;;1999.90;999.90;;;19.60;99.90;;;;;;5013695;28;20448;-68
2022/08/20 00:21:14;;;;;;;1999.90;999.90;;;19.60;99.90;;;;;;5013689;28;20378;-68
2022/08/20 00:23:43;;;;;;;1999.90;999.90;;;19.70;99.90;;;;;;5013567;28;20509;-68
2022/08/20 00:26:11;;;;;;;1999.90;999.90;;;19.70;99.90;;;;;;5013258;28;20502;-68
2022/08/20 00:28:36;;;;;;;1999.90;999.90;;;19.70;99.90;;;;;;5013488;28;20493;-68
2022/08/20 00:31:05;;;;;;;1999.90;999.90;;;19.70;99.90;;;;;;5013486;28;20498;-68
2022/08/20 00:33:31;;;;;;;1999.90;999.90;;;19.70;99.90;;;;;;5013496;28;20293;-68
2022/08/20 00:35:57;;;;;;;1999.90;999.90;;;19.70;99.90;;;;;;5013044;28;20427;-68
2022/08/20 00:38:23;;;;;;;1999.90;999.90;;;19.60;99.90;;;;;;5013478;28;20446;-68
2022/08/20 00:40:55;;;;;;;1999.90;999.90;;;19.60;99.90;;;;;;5013309;28;20175;-68
2022/08/20 00:43:44;;;;;;;1999.90;999.90;;;19.60;99.90;;;;;;5013213;28;20447;-68
2022/08/20 00:46:15;;;;;;;1999.90;999.90;;;19.60;99.90;;;;;;5012880;28;20420;-67
2022/08/20 00:48:46;;;;;;;1999.90;999.90;;;19.60;99.90;;;;;;5013250;28;20375;-67
2022/08/20 00:51:30;;;;;;;1999.90;999.90;;;19.60;99.90;;;;;;5013186;28;20378;-68
2022/08/20 00:54:14;;;;;;;1999.90;999.90;;;19.60;99.90;;;;;;5013040;28;20376;-68
2022/08/20 00:56:42;;;;;;;1999.90;999.90;;;19.70;99.90;;;;;;5012414;28;20959;-68
2022/08/20 00:59:13;;;;;;;1999.90;999.90;;;19.70;99.90;;;;;;5013054;28;20434;-68
2022/08/20 01:01:41;;;;;;;1999.90;999.90;;;19.70;99.90;;;;;;5013132;28;20412;-68
2022/08/20 01:04:06;;;;;;;1999.90;999.90;;;19.70;99.90;;;;;;5012653;28;20448;-68
2022/08/20 01:06:32;;;;;;;1999.90;999.90;;;19.80;99.90;;;;;;5012655;28;20506;-68
2022/08/20 01:09:00;;;;;;;1999.90;999.90;;;19.80;99.90;;;;;;5012907;28;20195;-68
2022/08/20 01:11:33;;;;;;;1999.90;999.90;;;19.80;99.90;;;;;;5012730;28;20176;-68
2022/08/20 01:14:08;;;;;;;1999.90;999.90;;;19.70;99.90;;;;;;5012795;28;20466;-68
2022/08/20 01:16:35;;;;;;;1999.90;999.90;;;19.60;99.90;;;;;;5012537;28;20846;-68
2022/08/20 01:19:01;;;;;;;1999.90;999.90;;;19.60;99.90;;;;;;5012719;28;20474;-68
2022/08/20 01:21:27;;;;;;;1999.90;999.90;;;19.60;99.90;;;;;;5012584;28;20412;-68
2022/08/20 01:24:21;;;;;;;1999.90;999.90;;;19.60;99.90;;;;;;5012368;28;20448;-68
2022/08/20 01:26:48;;;;;;;1999.90;999.90;;;19.60;99.90;;;;;;5012318;28;20421;-68
2022/08/20 01:29:22;;;;;;;1999.90;999.90;;;19.60;99.90;;;;;;5012657;28;20411;-68
2022/08/20 01:31:48;;;;;;;1999.90;999.90;;;19.60;99.90;;;;;;5012542;28;20408;-68
2022/08/20 01:34:17;;;;;;;1999.90;999.90;;;19.50;99.90;;;;;;5012305;28;20423;-68
2022/08/20 01:36:44;;;;;;;1999.90;999.90;;;19.40;99.90;;;;;;5012216;28;20405;-68
2022/08/20 01:39:12;;;;;;;1999.90;999.90;;;19.40;99.90;;;;;;5012386;28;20401;-68
2022/08/20 01:41:42;;;;;;;1999.90;999.90;;;19.40;99.90;;;;;;5012241;28;20546;-68
2022/08/20 01:44:08;;;;;;;1999.90;999.90;;;19.30;99.90;;;;;;5012146;28;20536;-68
2022/08/20 01:46:36;;;;;;;1999.90;999.90;;;19.30;99.90;;;;;;5011949;28;20434;-68
2022/08/20 01:49:20;;;;;;;1999.90;999.90;;;19.40;99.90;;;;;;5012321;28;20878;-68
2022/08/20 01:51:47;;;;;;;1999.90;999.90;;;19.40;99.90;;;;;;5012305;28;20385;-68
2022/08/20 01:54:12;;;;;;;1999.90;999.90;;;19.40;99.90;;;;;;5012102;28;20446;-69
2022/08/20 01:56:55;;;;;;;1999.90;999.90;;;19.50;99.90;;;;;;5011896;28;20409;-68
2022/08/20 01:59:21;;;;;;;1999.90;999.90;;;19.50;99.90;;;;;;5012149;28;20184;-68
2022/08/20 02:01:47;;;;;;;1999.90;999.90;;;19.50;99.90;;;;;;5012057;28;20421;-68
2022/08/20 02:04:15;;;;;;;1999.90;999.90;;;19.60;99.90;;;;;;5011965;28;20821;-68
2022/08/20 02:06:53;;;;;;;1999.90;999.90;;;19.60;99.90;;;;;;5011879;28;20165;-68
2022/08/20 02:09:20;;;;;;;1999.90;999.90;;;19.60;99.90;;;;;;5016083;28;20495;-68
2022/08/20 02:11:46;;;;;;;1999.90;999.90;;;19.60;99.90;;;;;;5016074;28;20473;-68
2022/08/20 02:14:13;;;;;;;1999.90;999.90;;;19.60;99.90;;;;;;5016014;28;20981;-68
2022/08/20 02:16:42;;;;;;;1999.90;999.90;;;19.60;99.90;;;;;;5015734;28;20389;-68
2022/08/20 02:19:13;;;;;;;1999.90;999.90;;;19.70;99.90;;;;;;5015997;28;20464;-68
2022/08/20 02:21:44;;;;;;;1999.90;999.90;;;19.70;99.90;;;;;;5015924;28;20411;-68
2022/08/20 02:24:11;;;;;;;1999.90;999.90;;;19.70;99.90;;;;;;5015743;28;20865;-68
2022/08/20 02:26:37;;;;;;;1999.90;999.90;;;19.70;99.90;;;;;;5015540;28;20426;-68
2022/08/20 02:29:08;;;;;;;1999.90;999.90;;;19.80;99.90;;;;;;5015785;28;20406;-68
2022/08/20 02:31:35;;;;;;;1999.90;999.90;;;19.80;99.90;;;;;;5015823;28;20401;-68
2022/08/20 02:34:03;;;;;;;1999.90;999.90;;;19.70;99.90;;;;;;5015677;28;20407;-68
2022/08/20 02:36:29;;;;;;;1999.90;999.90;;;19.70;99.90;;;;;;5015449;28;20448;-68
2022/08/20 02:38:55;;;;;;;1999.90;999.90;;;19.80;99.90;;;;;;5015508;28;20442;-68
2022/08/20 02:41:20;;;;;;;1999.90;999.90;;;19.80;99.90;;;;;;5015621;28;20169;-68
2022/08/20 02:43:48;;;;;;;1999.90;999.90;;;19.80;99.90;;;;;;5015511;28;20200;-68
2022/08/20 02:46:14;;;;;;;1999.90;999.90;;;19.80;99.90;;;;;;5015303;28;20168;-68
2022/08/20 02:48:41;;;;;;;1999.90;999.90;;;19.80;99.90;;;;;;5015531;28;20499;-68
2022/08/20 02:51:07;;;;;;;1999.90;999.90;;;19.90;99.90;;;;;;5015423;28;20375;-68
2022/08/20 02:53:37;;;;;;;1999.90;999.90;;;19.90;99.90;;;;;;5015267;28;20378;-68
2022/08/20 02:56:04;;;;;;;1999.90;999.90;;;19.90;99.90;;;;;;5015046;28;20529;-68
2022/08/20 02:58:30;;;;;;;1999.90;999.90;;;19.90;99.90;;;;;;5015384;28;20428;-68
2022/08/20 03:00:56;;;;;;;1999.90;999.90;;;19.80;99.90;;;;;;5015261;28;20396;-68
2022/08/20 03:03:23;;;;;;;1999.90;999.90;;;19.80;99.90;;;;;;5015137;28;20283;-68
2022/08/20 03:05:55;;;;;;;1999.90;999.90;;;19.80;99.90;;;;;;5014836;28;20204;-68
2022/08/20 03:08:22;;;;;;;1999.90;999.90;;;19.70;99.90;;;;;;5014886;28;20405;-68
2022/08/20 03:10:49;;;;;;;1999.90;999.90;;;19.80;99.90;;;;;;5014970;28;20416;-68
2022/08/20 03:13:16;;;;;;;1999.90;999.90;;;19.90;99.90;;;;;;5014963;28;20375;-68
2022/08/20 03:15:48;;;;;;;1999.90;999.90;;;19.90;99.90;;;;;;5014969;28;20469;-68
2022/08/20 03:18:16;;;;;;;1999.90;999.90;;;19.90;99.90;;;;;;5014997;28;20408;-68
2022/08/20 03:20:43;;;;;;;1999.90;999.90;;;19.90;99.90;;;;;;5015709;28;20462;-68
2022/08/20 03:23:08;;;;;;;1999.90;999.90;;;19.90;99.90;;;;;;5015107;28;20514;-68
2022/08/20 03:25:35;;;;;;;1999.90;999.90;;;19.90;99.90;;;;;;5015602;28;20460;-68
2022/08/20 03:28:01;;;;;;;1999.90;999.90;;;20.00;99.90;;;;;;5015194;28;20211;-68
2022/08/20 03:30:27;;;;;;;1999.90;999.90;;;19.90;99.90;;;;;;5014966;28;20400;-68
2022/08/20 03:32:54;;;;;;;1999.90;999.90;;;19.90;99.90;;;;;;5015156;28;20683;-68
2022/08/20 03:35:22;;;;;;;1999.90;999.90;;;19.90;99.90;;;;;;5015122;28;20436;-68
2022/08/20 03:37:48;;;;;;;1999.90;999.90;;;19.90;99.90;;;;;;5014844;28;20406;-68
2022/08/20 03:40:20;;;;;;;1999.90;999.90;;;19.90;99.90;;;;;;5015277;28;20746;-68
2022/08/20 03:42:45;;;;;;;1999.90;999.90;;;19.90;99.90;;;;;;5014860;28;20459;-68
2022/08/20 03:45:12;;;;;;;1999.90;999.90;;;19.90;99.90;;;;;;5014751;28;20933;-67
2022/08/20 03:47:39;;;;;;;1999.90;999.90;;;19.70;99.90;;;;;;5014232;28;20172;-68
2022/08/20 03:50:08;;;;;;;1999.90;999.90;;;19.70;99.90;;;;;;5014811;28;20407;-68
2022/08/20 03:52:35;;;;;;;1999.90;999.90;;;19.60;99.90;;;;;;5014622;28;20855;-68
2022/08/20 03:55:00;;;;;;;1999.90;999.90;;;19.60;99.90;;;;;;5014389;28;20434;-67
2022/08/20 03:57:27;;;;;;;1999.90;999.90;;;19.60;99.90;;;;;;5014111;28;20518;-68
2022/08/20 03:59:53;;;;;;;1999.90;999.90;;;19.60;99.90;;;;;;5014379;28;20255;-67
2022/08/20 04:02:18;;;;;;;1999.90;999.90;;;19.50;99.90;;;;;;5014253;28;20542;-68
2022/08/20 04:04:44;;;;;;;1999.90;999.90;;;19.50;99.90;;;;;;5014355;28;20204;-68
2022/08/20 04:07:16;;;;;;;1999.90;999.90;;;19.50;99.90;;;;;;5014118;28;20173;-68
2022/08/20 04:09:44;;;;;;;1999.90;999.90;;;19.50;99.90;;;;;;5014478;28;20169;-68
2022/08/20 04:12:11;;;;;;;1999.90;999.90;;;19.60;99.90;;;;;;5014219;28;20416;-68
2022/08/20 04:14:39;;;;;;;1999.90;999.90;;;19.60;99.90;;;;;;5014214;28;20438;-67
2022/08/20 04:17:07;;;;;;;1999.90;999.90;;;19.60;99.90;;;;;;5013934;28;20420;-68
2022/08/20 04:19:34;;;;;;;1999.90;999.90;;;19.60;99.90;;;;;;5014230;28;20492;-68
2022/08/20 04:22:00;;;;;;;1999.90;999.90;;;19.60;99.90;;;;;;5013816;28;20404;-68
2022/08/20 04:24:26;;;;;;;1999.90;999.90;;;19.70;99.90;;;;;;5013922;28;20776;-68
2022/08/20 04:26:53;;;;;;;1999.90;999.90;;;19.60;99.90;;;;;;5013612;28;20507;-68
2022/08/20 04:29:20;;;;;;;1999.90;999.90;;;19.60;99.90;;;;;;5013814;28;20176;-68
2022/08/20 04:31:45;;;;;;;1999.90;999.90;;;19.60;99.90;;;;;;5012995;28;20415;-68
2022/08/20 04:34:11;;;;;;;1999.90;999.90;;;19.60;99.90;;;;;;5013427;28;20866;-68
2022/08/20 04:36:37;;;;;;;1999.90;999.90;;;19.50;99.90;;;;;;5013183;28;20234;-68
2022/08/20 04:39:03;;;;;;;1999.90;999.90;;;19.50;99.90;;;;;;5013415;28;20408;-68
2022/08/20 04:41:28;;;;;;;1999.90;999.90;;;19.50;99.90;;;;;;5013338;28;20258;-68
2022/08/20 04:43:55;;;;;;;1999.90;999.90;;;19.40;99.90;;;;;;5013166;28;20249;-68
2022/08/20 04:46:24;;;;;;;1999.90;999.90;;;19.40;99.90;;;;;;5013157;28;20178;-68
2022/08/20 04:48:50;;;;;;;1999.90;999.90;;;19.40;99.90;;;;;;5013360;28;20923;-68
2022/08/20 04:51:15;;;;;;;1999.90;999.90;;;19.50;99.90;;;;;;5013175;28;20414;-68
2022/08/20 04:53:41;;;;;;;1999.90;999.90;;;19.50;99.90;;;;;;5013176;28;20180;-68
2022/08/20 04:56:08;;;;;;;1999.90;999.90;;;19.50;99.90;;;;;;5012697;28;20207;-68
2022/08/20 04:58:36;;;;;;;1999.90;999.90;;;19.50;99.90;;;;;;5013049;28;20413;-68
2022/08/20 05:01:08;;;;;;;1999.90;999.90;;;19.40;99.90;;;;;;5013083;28;20419;-68
2022/08/20 05:03:37;;;;;;;1999.90;999.90;;;19.30;99.90;;;;;;5012939;28;20462;-68
2022/08/20 05:06:05;;;;;;;1999.90;999.90;;;19.20;99.90;;;;;;5012966;28;20971;-68
2022/08/20 05:08:31;;;;;;;1999.90;999.90;;;19.20;99.90;;;;;;5012900;28;20412;-68
2022/08/20 05:10:57;;;;;;;1999.90;999.90;;;19.10;99.90;;;;;;5012806;28;20456;-68
2022/08/20 05:13:23;;;;;;;1999.90;999.90;;;19.00;99.90;;;;;;5013079;28;20409;-69
2022/08/20 05:15:49;;;;;;;1999.90;999.90;;;19.00;99.90;;;;;;5012698;28;20607;-69
2022/08/20 05:18:18;;;;;;;1999.90;999.90;;;18.90;99.90;;;;;;5012705;28;20845;-69
2022/08/20 05:20:45;;;;;;;1999.90;999.90;;;18.90;99.90;;;;;;5012639;28;20415;-68
2022/08/20 05:23:13;;;;;;;1999.90;999.90;;;18.90;99.90;;;;;;5012559;28;20447;-69
2022/08/20 05:25:41;;;;;;;1999.90;999.90;;;18.80;99.90;;;;;;5012473;28;20786;-68
2022/08/20 05:28:11;;;;;;;1999.90;999.90;;;18.80;99.90;;;;;;5012430;28;20408;-68
2022/08/20 05:30:43;;;;;;;1999.90;999.90;;;18.80;99.90;;;;;;5012590;28;20404;-68
2022/08/20 05:33:09;;;;;;;1999.90;999.90;;;18.80;99.90;;;;;;5012598;28;20420;-68
2022/08/20 05:35:37;;;;;;;1999.90;999.90;;;18.80;99.90;;;;;;5012357;28;20445;-68
2022/08/20 05:38:05;;;;;;;1999.90;999.90;;;18.80;99.90;;;;;;5012268;28;20419;-68
2022/08/20 05:40:31;;;;;;;1999.90;999.90;;;18.70;99.90;;;;;;5012402;28;20423;-68
2022/08/20 05:42:56;;;;;;;1999.90;999.90;;;18.70;99.90;;;;;;5011437;28;20462;-68
2022/08/20 05:45:22;;;;;;;1999.90;999.90;;;18.70;99.90;;;;;;5012382;28;20195;-68
2022/08/20 05:47:48;;;;;;;1999.90;999.90;;;18.70;99.90;;;;;;5012176;28;20173;-68
2022/08/20 05:50:16;;;;;;;1999.90;999.90;;;18.70;99.90;;;;;;5012251;28;20169;-68
2022/08/20 05:52:42;;;;;;;1999.90;999.90;;;18.80;99.90;;;;;;5012437;28;20188;-68
2022/08/20 05:55:12;;;;;;;1999.90;999.90;;;18.80;99.90;;;;;;5012111;28;20441;-68
2022/08/20 05:57:38;;;;;;;1999.90;999.90;;;18.80;99.90;;;;;;5012053;28;20492;-68
2022/08/20 06:00:10;;;;;;;1999.90;999.90;;;18.80;99.90;;;;;;5012232;28;20501;-68
2022/08/20 06:05:20;;;;;;;1999.90;999.90;;;18.80;99.90;;;;;;5012260;28;20450;-69
2022/08/20 06:07:45;;;;;;;1999.90;999.90;;;18.70;99.90;;;;;;5011898;28;20526;-69
2022/08/20 06:10:12;;;;;;;1999.90;999.90;;;18.70;99.90;;;;;;5012116;28;20174;-69
2022/08/20 06:12:38;;;;;;;1999.90;999.90;;;18.70;99.90;;;;;;5012095;28;20177;-69
2022/08/20 06:15:05;;;;;;;1999.90;999.90;;;18.70;99.90;;;;;;5012096;28;20960;-69
2022/08/20 06:17:32;;;;;;;1999.90;999.90;;;18.70;99.90;;;;;;5011734;28;20225;-69
2022/08/20 06:20:05;;;;;;;1999.90;999.90;;;18.60;99.90;;;;;;5012127;28;20412;-68
2022/08/20 06:22:30;;;;;;;1999.90;999.90;;;18.70;99.90;;;;;;5011873;28;20803;-69
2022/08/20 06:24:56;;;;;;;1999.90;999.90;;;18.70;99.90;;;;;;5011994;28;20517;-69
2022/08/20 06:27:22;;;;;;;1999.90;999.90;;;18.60;99.90;;;;;;5011661;28;20178;-69
2022/08/20 06:29:49;;;;;;;1999.90;999.90;;;18.60;99.90;;;;;;5012016;28;20698;-68
2022/08/20 06:32:15;;;;;;;1999.90;999.90;;;18.60;99.90;;;;;;5011832;28;20435;-68
2022/08/20 06:34:40;;;;;;;1999.90;999.90;;;18.50;99.90;;;;;;5011788;28;20923;-68
2022/08/20 06:37:17;;;;;;;1999.90;999.90;;;18.50;99.90;;;;;;5011722;28;20185;-69
2022/08/20 06:39:43;;;;;;;1999.90;999.90;;;18.50;99.90;;;;;;5011838;28;20217;-68
2022/08/20 06:42:09;;;;;;;1999.90;999.90;;;18.60;99.90;;;;;;5011866;28;20412;-69
2022/08/20 06:44:35;;;;;;;1999.90;999.90;;;18.50;99.90;;;;;;5011753;28;20426;-69
2022/08/20 06:47:03;;;;;;;1999.90;999.90;;;18.50;99.90;;;;;;5011530;28;20173;-69
2022/08/20 06:49:29;;;;;;;1999.90;999.90;;;18.40;99.90;;;;;;5011838;28;20418;-69
2022/08/20 06:51:55;;;;;;;1999.90;999.90;;;18.40;99.90;;;;;;5011719;28;20420;-69
2022/08/20 06:54:21;;;;;;;1999.90;999.90;;;18.50;99.90;;;;;;5014107;28;20426;-68
2022/08/20 06:56:47;;;;;;;1999.90;999.90;;;18.50;99.90;;;;;;5015087;28;20668;-69
2022/08/20 06:59:13;;;;;;;1999.90;999.90;;;18.40;99.90;;;;;;5015069;28;20404;-69
2022/08/20 07:01:39;;;;;;;1999.90;999.90;;;18.30;99.90;;;;;;5015162;28;20424;-69
2022/08/20 07:04:07;;;;;;;1999.90;999.90;;;18.40;99.90;;;;;;5015019;28;20298;-69
2022/08/20 07:06:33;;;;;;;1999.90;999.90;;;18.40;99.90;;;;;;5014956;28;20183;-69
2022/08/20 07:08:59;;;;;;;1999.90;999.90;;;18.40;99.90;;;;;;5015111;28;20486;-69
2022/08/20 07:11:24;;;;;;;1999.90;999.90;;;18.50;99.90;;;;;;5015046;28;20231;-69
2022/08/20 07:13:50;;;;;;;1999.90;999.90;;;18.70;99.90;;;;;;5014925;28;20426;-69
2022/08/20 07:16:16;;;;;;;1999.90;999.90;;;18.90;99.90;;;;;;5014775;28;20265;-69
2022/08/20 07:18:41;;;;;;;1999.90;999.90;;;18.90;99.90;;;;;;5014882;28;20174;-69
2022/08/20 07:21:07;;;;;;;1999.90;999.90;;;19.10;99.90;;;;;;5014937;28;20225;-69
2022/08/20 07:23:33;;;;;;;1999.90;999.90;;;19.10;99.90;;;;;;5014786;28;20662;-69
2022/08/20 07:25:58;;;;;;;1999.90;999.90;;;19.20;99.90;;;;;;5014522;28;20199;-69
2022/08/20 07:28:30;;;;;;;1999.90;999.90;;;19.20;99.90;;;;;;5014651;28;20180;-68
2022/08/20 07:33:42;;;;;;;1999.90;999.90;;;19.50;99.90;;;;;;5014928;28;20445;-69
2022/08/20 07:36:08;;;;;;;1999.90;999.90;;;19.70;99.90;;;;;;5014376;28;20922;-69
2022/08/20 07:38:34;;;;;;;1999.90;999.90;;;19.70;99.90;;;;;;5014463;28;20514;-68
2022/08/20 07:41:04;;;;;;;1999.90;999.90;;;19.80;99.90;;;;;;5014477;28;20789;-69
2022/08/20 07:43:30;;;;;;;1999.90;999.90;;;19.80;99.90;;;;;;5014666;28;20522;-69
2022/08/20 07:46:01;;;;;;;1999.90;999.90;;;19.70;99.90;;;;;;5014122;28;20479;-69
2022/08/20 07:48:29;;;;;;;1999.90;999.90;;;19.70;99.90;;;;;;5014480;28;20409;-69
2022/08/20 07:50:56;;;;;;;1999.90;999.90;;;19.80;99.90;;;;;;5014224;28;20436;-69
2022/08/20 07:53:22;;;;;;;1999.90;999.90;;;19.70;99.90;;;;;;5014196;28;20426;-70
2022/08/20 07:55:47;;;;;;;1999.90;999.90;;;19.70;99.90;;;;;;5014112;28;20437;-70
2022/08/20 07:58:18;;;;;;;1999.90;999.90;;;19.90;99.90;;;;;;5014044;28;20254;-70
2022/08/20 08:00:44;;;;;;;1999.90;999.90;;;20.00;99.90;;;;;;5014279;28;20181;-69
2022/08/20 08:03:11;;;;;;;1999.90;999.90;;;19.90;99.90;;;;;;5013912;28;20446;-69
2022/08/20 08:05:39;;;;;;;1999.90;999.90;;;20.10;99.90;;;;;;5012817;28;20450;-70
2022/08/20 08:08:08;;;;;;;1999.90;999.90;;;20.10;99.90;;;;;;5013659;28;20407;-70
2022/08/20 08:10:36;;;;;;;1999.90;999.90;;;20.10;99.90;;;;;;5013943;28;20960;-69
2022/08/20 08:13:05;;;;;;;1999.90;999.90;;;20.10;99.90;;;;;;5013929;28;20415;-70
2022/08/20 08:15:33;;;;;;;1999.90;999.90;;;20.10;99.90;;;;;;5013856;28;20435;-70
2022/08/20 08:18:07;;;;;;;1999.90;999.90;;;20.00;99.90;;;;;;5013363;28;20421;-70
2022/08/20 08:20:41;;;;;;;1999.90;999.90;;;19.90;99.90;;;;;;5013737;28;20950;-70
2022/08/20 08:23:09;;;;;;;1999.90;999.90;;;19.80;99.90;;;;;;5013690;28;20463;-70
2022/08/20 08:25:35;;;;;;;1999.90;999.90;;;19.80;99.90;;;;;;5013677;28;20431;-70
2022/08/20 08:28:02;;;;;;;1999.90;999.90;;;19.70;99.90;;;;;;5013566;28;20912;-70
2022/08/20 08:30:27;;;;;;;1999.90;999.90;;;19.80;99.90;;;;;;5013531;28;20184;-70
2022/08/20 08:35:39;;;;;;;1999.90;999.90;;;19.90;99.90;;;;;;5013496;28;20208;-70
2022/08/20 08:38:05;;;;;;;1999.90;999.90;;;20.00;99.90;;;;;;5013275;28;20408;-70
2022/08/20 08:40:32;;;;;;;1999.90;999.90;;;20.00;99.90;;;;;;5013737;28;20464;-70
2022/08/20 08:43:03;;;;;;;1999.90;999.90;;;20.00;99.90;;;;;;5013321;28;20456;-70
2022/08/20 08:45:55;;;;;;;1999.90;999.90;;;20.10;99.90;;;;;;5013261;28;20429;-70
2022/08/20 08:48:27;;;;;;;1999.90;999.90;;;20.20;99.90;;;;;;5013232;28;20511;-69
2022/08/20 08:50:57;;;;;;;1999.90;999.90;;;20.30;99.90;;;;;;5013418;28;20408;-69
2022/08/20 08:53:32;;;;;;;1999.90;999.90;;;20.30;99.90;;;;;;5013356;28;20405;-69
2022/08/20 08:55:59;;;;;;;1999.90;999.90;;;20.20;99.90;;;;;;5012892;28;20966;-69
2022/08/20 08:58:26;;;;;;;1999.90;999.90;;;20.10;99.90;;;;;;5013212;28;20897;-69
2022/08/20 09:00:52;;;;;;;1999.90;999.90;;;20.10;99.90;;;;;;5013097;28;20851;-69
2022/08/20 09:03:28;;;;;;;1999.90;999.90;;;20.10;99.90;;;;;;5012970;28;20533;-69
2022/08/20 09:05:58;;;;;;;1999.90;999.90;;;20.00;99.90;;;;;;5012873;28;21064;-69
2022/08/20 09:08:36;;;;;;;1999.90;999.90;;;20.00;99.90;;;;;;5012942;28;20407;-70
2022/08/20 09:11:07;;;;;;;1999.90;999.90;;;20.10;99.90;;;;;;5013005;28;20422;-70
2022/08/20 09:13:33;;;;;;;1999.90;999.90;;;20.20;99.90;;;;;;5013006;28;20421;-69
2022/08/20 09:15:59;;;;;;;1999.90;999.90;;;20.20;99.90;;;;;;5012353;28;20859;-70
2022/08/20 09:18:25;;;;;;;1999.90;999.90;;;20.10;99.90;;;;;;5010898;28;20455;-70
2022/08/20 09:20:50;;;;;;;1999.90;999.90;;;20.00;99.90;;;;;;5011841;28;20465;-71
2022/08/20 09:23:16;;;;;;;1999.90;999.90;;;20.00;99.90;;;;;;5012725;28;20205;-70
2022/08/20 09:25:42;;;;;;;1999.90;999.90;;;20.00;99.90;;;;;;5012352;28;20275;-69
2022/08/20 09:28:08;;;;;;;1999.90;999.90;;;20.00;99.90;;;;;;5011497;28;20181;-73
2022/08/20 09:30:33;;;;;;;1999.90;999.90;;;20.00;99.90;;;;;;5012196;28;20581;-73
2022/08/20 09:32:59;;;;;;;1999.90;999.90;;;20.00;99.90;;;;;;5012254;28;20416;-70
2022/08/20 09:35:26;;;;;;;1999.90;999.90;;;20.00;99.90;;;;;;5011911;28;20671;-69
2022/08/20 09:37:52;;;;;;;1999.90;999.90;;;20.10;99.90;;;;;;5015072;28;20415;-71
2022/08/20 09:40:18;;;;;;;1999.90;999.90;;;20.20;99.90;;;;;;5013281;28;20423;-70
2022/08/20 09:42:44;;;;;;;1999.90;999.90;;;20.30;99.90;;;;;;5012669;28;20208;-71
2022/08/20 09:45:11;;;;;;;1999.90;999.90;;;20.40;99.90;;;;;;5013383;28;20423;-70
2022/08/20 09:47:37;;;;;;;1999.90;999.90;;;20.60;99.90;;;;;;5015450;28;20186;-71
2022/08/20 09:50:03;;;;;;;1999.90;999.90;;;20.60;99.90;;;;;;4996141;28;20405;-70
2022/08/20 09:52:35;;;;;;;1999.90;999.90;;;20.70;99.90;;;;;;5009739;28;20419;-71
2022/08/20 09:55:06;;;;;;;1999.90;999.90;;;20.80;99.90;;;;;;5011759;28;20432;-68
2022/08/20 09:57:33;;;;;;;1999.90;999.90;;;20.80;99.90;;;;;;5016862;28;20496;-69
2022/08/20 10:00:03;;;;;;;1999.90;999.90;;;20.80;99.90;;;;;;4999214;28;20443;-71
2022/08/20 10:02:29;;;;;;;1999.90;999.90;;;20.80;99.90;;;;;;5017157;28;20527;-71
2022/08/20 10:04:55;;;;;;;1999.90;999.90;;;20.80;99.90;;;;;;5011473;28;20556;-71
2022/08/20 10:07:21;;;;;;;1999.90;999.90;;;20.80;99.90;;;;;;5011223;28;20170;-71
2022/08/20 10:09:46;;;;;;;1999.90;999.90;;;20.70;99.90;;;;;;5011595;28;20169;-71
2022/08/20 10:12:12;;;;;;;1999.90;999.90;;;20.70;99.90;;;;;;5011542;28;20409;-71
2022/08/20 10:14:38;;;;;;;1999.90;999.90;;;20.60;99.90;;;;;;5010968;28;20224;-71
2022/08/20 10:17:03;;;;;;;1999.90;999.90;;;20.50;99.90;;;;;;5011088;28;20213;-71
2022/08/20 10:19:30;;;;;;;1999.90;999.90;;;20.50;99.90;;;;;;5011446;28;20197;-71
2022/08/20 10:21:57;;;;;;;1999.90;999.90;;;20.60;99.90;;;;;;5011108;28;20537;-71
2022/08/20 10:24:23;;;;;;;1999.90;999.90;;;20.60;99.90;;;;;;5011372;28;20455;-71
2022/08/20 10:26:49;;;;;;;1999.90;999.90;;;20.60;99.90;;;;;;5011161;28;20407;-71
2022/08/20 10:29:16;;;;;;;1999.90;999.90;;;20.70;99.90;;;;;;5013451;28;20466;-71
2022/08/20 10:31:41;;;;;;;1999.90;999.90;;;20.70;99.90;;;;;;5015226;28;20381;-71
2022/08/20 10:34:07;;;;;;;1999.90;999.90;;;20.80;99.90;;;;;;5015000;28;20404;-70
2022/08/20 10:36:33;;;;;;;1999.90;999.90;;;20.80;99.90;;;;;;5014036;28;20172;-70
2022/08/20 10:38:59;;;;;;;1999.90;999.90;;;20.80;99.90;;;;;;5015083;28;20407;-71
2022/08/20 10:41:24;;;;;;;1999.90;999.90;;;20.80;99.90;;;;;;5014963;28;20647;-70
2022/08/20 10:43:50;;;;;;;1999.90;999.90;;;20.80;99.90;;;;;;5014401;28;20205;-71
2022/08/20 10:46:15;;;;;;;1999.90;999.90;;;20.90;99.90;;;;;;5014561;28;20180;-71
2022/08/20 10:48:41;;;;;;;1999.90;999.90;;;21.00;99.90;;;;;;5014937;28;20538;-70
2022/08/20 10:51:07;;;;;;;1999.90;999.90;;;21.00;99.90;;;;;;5014314;28;20173;-72
2022/08/20 10:53:33;;;;;;;1999.90;999.90;;;21.10;99.90;;;;;;5014723;28;20213;-69
2022/08/20 10:55:59;;;;;;;1999.90;999.90;;;21.10;99.90;;;;;;5014143;28;20203;-70
2022/08/20 10:58:25;;;;;;;1999.90;999.90;;;21.20;99.90;;;;;;5014124;28;20434;-70
2022/08/20 11:00:51;;;;;;;1999.90;999.90;;;21.20;99.90;;;;;;5014496;28;20413;-70
2022/08/20 11:03:18;;;;;;;1999.90;999.90;;;21.20;99.90;;;;;;5014384;28;20484;-70
2022/08/20 11:05:44;;;;;;;1999.90;999.90;;;21.20;99.90;;;;;;5028578;23;21016;-66
2022/08/20 11:08:09;;;;;;;1999.90;999.90;;;21.20;99.90;;;;;;5014297;28;20410;-66
2022/08/20 11:10:37;;;;;;;1999.90;999.90;;;21.20;99.90;;;;;;5014571;28;20804;-66
2022/08/20 11:13:04;;;;;;;1999.90;999.90;;;21.20;99.90;;;;;;5013955;28;20175;-66
2022/08/20 11:15:31;;;;;;;1999.90;999.90;;;21.20;99.90;;;;;;5013797;28;20438;-66
2022/08/20 11:17:57;;;;;;;1999.90;999.90;;;21.20;99.90;;;;;;5013978;28;20773;-66
2022/08/20 11:20:25;;;;;;;1999.90;999.90;;;21.20;99.90;;;;;;5014327;28;20404;-66
2022/08/20 11:22:51;;;;;;;1999.90;999.90;;;21.20;99.90;;;;;;5021065;28;20212;-66
2022/08/20 11:25:17;;;;;;;1999.90;999.90;;;21.30;99.90;;;;;;5020869;28;20426;-67
2022/08/20 11:27:46;;;;;;;1999.90;999.90;;;21.40;99.90;;;;;;5018896;28;20405;-66
2022/08/20 11:30:25;;;;;;;1999.90;999.90;;;21.60;99.90;;;;;;5019936;28;20407;-67
2022/08/20 11:32:51;;;;;;;1999.90;999.90;;;21.70;99.90;;;;;;5018950;28;20420;-67
2022/08/20 11:35:18;;;;;;;1999.90;999.90;;;21.70;99.90;;;;;;5019035;28;20448;-67
2022/08/20 11:37:44;;;;;;;1999.90;999.90;;;21.80;99.90;;;;;;5017918;28;20447;-67
2022/08/20 11:40:11;;;;;;;1999.90;999.90;;;21.80;99.90;;;;;;5017600;28;20415;-66
2022/08/20 11:42:37;;;;;;;1999.90;999.90;;;21.70;99.90;;;;;;5013182;28;20180;-66
2022/08/20 11:45:04;;;;;;;1999.90;999.90;;;21.70;99.90;;;;;;5013753;28;20865;-66
2022/08/20 11:47:32;;;;;;;1999.90;999.90;;;21.80;99.90;;;;;;5013558;28;20407;-66
2022/08/20 11:50:04;;;;;;;1999.90;999.90;;;22.10;99.90;;;;;;5013388;28;20906;-66
2022/08/20 11:52:30;;;;;;;1999.90;999.90;;;22.20;99.90;;;;;;5013629;28;20521;-66
2022/08/20 11:54:56;;;;;;;1999.90;999.90;;;22.40;99.90;;;;;;5013230;28;20409;-66
2022/08/20 11:57:32;;;;;;;1999.90;999.90;;;22.80;99.90;;;;;;5012364;28;20493;-66
2022/08/20 12:00:00;;;;;;;1999.90;999.90;;;23.50;99.90;;;;;;5013485;28;20460;-66
2022/08/20 12:02:26;;;;;;;1999.90;999.90;;;24.10;99.90;;;;;;5013296;28;20463;-66
2022/08/20 12:04:51;;;;;;;1999.90;999.90;;;24.90;99.90;;;;;;5012136;28;20418;-66
2022/08/20 12:07:20;;;;;;;1999.90;999.90;;;25.20;99.90;;;;;;5013614;28;20515;-67
2022/08/20 12:09:46;;;;;;;1999.90;999.90;;;25.10;99.90;;;;;;5013669;28;20217;-67